createdAt,value
2018-06-25T00:21:12.215Z,4.20
2018-06-25T00:31:36.666Z,3.73
2018-06-25T00:50:56.975Z,14.23
2018-06-25T01:04:30.877Z,7.83
2018-06-25T01:09:15.542Z,12.57
2018-06-25T01:17:10.275Z,8.50
2018-06-25T01:19:37.298Z,7.53
2018-06-25T01:22:04.368Z,9.77
2018-06-25T01:24:31.449Z,10.83
2018-06-25T01:26:58.484Z,13.10
2018-06-25T01:32:05.214Z,10.57
2018-06-25T01:34:32.253Z,9.70
2018-06-25T01:36:59.749Z,10.77
2018-06-25T01:39:27.630Z,10.43
2018-06-25T01:44:37.611Z,10.15
2018-06-25T01:47:04.644Z,9.10
2018-06-25T01:49:31.681Z,14.03
2018-06-25T01:51:58.799Z,10.57
2018-06-25T01:54:25.851Z,9.40
2018-06-25T01:56:53.715Z,14.17
2018-06-25T01:59:20.789Z,12.87
2018-06-25T02:01:48.069Z,13.37
2018-06-25T02:04:15.131Z,13.77
2018-06-25T02:06:42.191Z,10.20
2018-06-25T02:09:09.227Z,11.27
2018-06-25T02:11:36.927Z,11.83
2018-06-25T02:14:03.988Z,14.03
2018-06-25T02:16:31.063Z,12.10
2018-06-25T02:18:59.764Z,12.47
2018-06-25T02:24:02.684Z,14.85
2018-06-25T02:26:29.746Z,13.20
2018-06-25T02:28:56.799Z,11.93
2018-06-25T02:31:23.846Z,12.77
2018-06-25T02:33:50.912Z,12.83
2018-06-25T02:36:17.965Z,12.00
2018-06-25T02:38:45.116Z,11.00
2018-06-25T02:41:12.181Z,14.73
2018-06-25T02:43:39.511Z,10.90
2018-06-25T02:46:07.318Z,10.73
2018-06-25T02:48:37.252Z,8.77
2018-06-25T02:51:04.260Z,9.30
2018-06-25T02:53:31.597Z,10.67
2018-06-25T02:55:58.700Z,11.10
2018-06-25T02:58:26.873Z,12.03
2018-06-25T03:00:53.913Z,12.03
2018-06-25T03:06:01.135Z,11.75
2018-06-25T03:11:12.235Z,9.63
2018-06-25T03:13:37.586Z,9.53
2018-06-25T03:16:04.924Z,9.47
2018-06-25T03:18:32.788Z,9.53
2018-06-25T03:20:59.858Z,7.97
2018-06-25T03:23:26.888Z,5.93
2018-06-25T03:25:53.936Z,5.73
2018-06-25T03:28:21.001Z,7.27
2018-06-25T03:30:48.030Z,9.93
2018-06-25T03:33:15.072Z,7.53
2018-06-25T03:35:42.146Z,7.10
2018-06-25T03:38:11.132Z,6.43
2018-06-25T03:40:36.239Z,5.50
2018-06-25T03:43:03.293Z,5.73
2018-06-25T03:45:30.312Z,6.50
2018-06-25T03:47:57.339Z,6.47
2018-06-25T03:50:24.437Z,4.87
2018-06-25T03:52:52.607Z,6.37
2018-06-25T03:55:22.012Z,5.67
2018-06-25T03:57:49.728Z,9.33
2018-06-25T04:00:18.155Z,4.53
2018-06-25T04:02:46.602Z,4.47
2018-06-25T04:05:16.932Z,4.53
2018-06-25T04:07:44.017Z,5.27
2018-06-25T04:10:14.932Z,6.47
2018-06-25T04:12:42.003Z,6.37
2018-06-25T04:15:13.468Z,4.83
2018-06-25T04:20:21.358Z,9.20
2018-06-25T04:22:48.433Z,9.70
2018-06-25T04:25:15.501Z,6.20
2018-06-25T04:27:42.505Z,6.80
2018-06-25T04:32:51.396Z,7.68
2018-06-25T04:35:18.465Z,8.20
2018-06-25T04:37:45.495Z,8.37
2018-06-25T04:40:12.557Z,10.20
2018-06-25T04:42:43.256Z,8.10
2018-06-25T04:45:10.597Z,9.33
2018-06-25T04:47:39.112Z,13.40
2018-06-25T04:50:06.164Z,10.30
2018-06-25T04:52:34.151Z,9.07
2018-06-25T04:55:01.205Z,8.77
2018-06-25T04:57:28.347Z,10.03
2018-06-25T05:00:00.077Z,8.93
2018-06-25T05:02:27.101Z,10.53
2018-06-25T05:04:54.164Z,9.30
2018-06-25T05:07:22.591Z,14.63
2018-06-25T05:09:49.623Z,13.67
2018-06-25T05:12:16.700Z,14.20
2018-06-25T05:14:43.799Z,15.33
2018-06-25T05:17:10.834Z,15.33
2018-06-25T05:19:39.794Z,16.03
2018-06-25T05:22:06.843Z,15.43
2018-06-25T05:24:33.879Z,18.97
2018-06-25T05:27:00.944Z,19.93
2018-06-25T05:29:27.985Z,16.47
2018-06-25T05:31:55.045Z,16.50
2018-06-25T05:34:22.942Z,17.00
2018-06-25T05:36:49.981Z,15.97
2018-06-25T05:39:17.041Z,15.67
2018-06-25T05:41:50.149Z,16.53
2018-06-25T05:44:20.660Z,13.97
2018-06-25T05:46:48.564Z,15.97
2018-06-25T05:49:19.281Z,10.87
2018-06-25T05:51:46.391Z,12.07
2018-06-25T05:56:51.976Z,14.27
2018-06-25T05:59:19.292Z,16.83
2018-06-25T06:01:49.808Z,14.90
2018-06-25T06:04:16.857Z,10.93
2018-06-25T06:06:44.932Z,12.20
2018-06-25T06:09:12.112Z,9.53
2018-06-25T06:11:43.215Z,11.20
2018-06-25T06:16:49.372Z,12.80
2018-06-25T06:19:16.443Z,9.87
2018-06-25T06:21:44.429Z,8.60
